Decoded Metar for KSDB (SANDBERG in CA, USA) (IATA:SDB) | Meteo·Mobile Aviation Weather
aviador You're here:

KSDB Decoded Metar

SANDBERG in CA, USA
Report Time2019-02-22 03:35:00
UTC Time2019-02-22 03:55:47
Flight Rules vfr VFR
Wind350° at 14 Gusting to 21 kt
W.Rank350° ranks 3
Current wind is below 350° avg. (14.1)
Visibility9999 m
Phenomena:N/A
Clouds:Scattered 006 Hf
Expected CloudBase > 400 ft AGL from Temp-Dew spread
CeilingNone
Temp-3°C (ISA -9)
Dew Point-4°C (93% RH)
AAT-10.5°C
QNH1004 hPa
Density Alt3,806 ft
Elevation4,518 ft
Report Wrong Elevation
Raw Report
KSDB 220335Z AUTO 35014G21KT 10SM SCT006 M03/M04 A2965=

Extra information for KSDB:More info

Metar Taf Metar & Taf Last 4 Metars F.Rules Stats Wind Profile Meteogram Temp Stats Airport Information Weather charts Add Link Nearby VenuesMetar ALERT Operation Metar Decoded Social comments

AIRNAV info for KSDB